sensor_id;sensor_type;location;lat;lon;timestamp;P1;durP1;ratioP1;P2;durP2;ratioP2
3095;SDS011;1558;42.700;23.360;2023-04-24T00:01:47;9.33;;;7.10;;
3095;SDS011;1558;42.700;23.360;2023-04-24T00:04:17;9.37;;;7.30;;
3095;SDS011;1558;42.700;23.360;2023-04-24T00:06:46;9.87;;;7.47;;
3095;SDS011;1558;42.700;23.360;2023-04-24T00:09:15;8.07;;;6.97;;
3095;SDS011;1558;42.700;23.360;2023-04-24T00:11:44;10.13;;;6.80;;
3095;SDS011;1558;42.700;23.360;2023-04-24T00:14:12;7.70;;;6.40;;
3095;SDS011;1558;42.700;23.360;2023-04-24T00:16:40;7.60;;;6.90;;
3095;SDS011;1558;42.700;23.360;2023-04-24T00:19:10;8.60;;;6.47;;
3095;SDS011;1558;42.700;23.360;2023-04-24T00:21:39;7.57;;;6.47;;
3095;SDS011;1558;42.700;23.360;2023-04-24T00:24:08;8.70;;;6.60;;
3095;SDS011;1558;42.700;23.360;2023-04-24T00:26:36;6.03;;;5.53;;
3095;SDS011;1558;42.700;23.360;2023-04-24T00:29:04;7.13;;;6.53;;
3095;SDS011;1558;42.700;23.360;2023-04-24T00:31:32;6.97;;;6.27;;
3095;SDS011;1558;42.700;23.360;2023-04-24T00:34:01;7.13;;;6.27;;
3095;SDS011;1558;42.700;23.360;2023-04-24T00:36:31;7.47;;;6.70;;
3095;SDS011;1558;42.700;23.360;2023-04-24T00:38:59;7.07;;;5.60;;
3095;SDS011;1558;42.700;23.360;2023-04-24T00:41:27;6.37;;;5.60;;
3095;SDS011;1558;42.700;23.360;2023-04-24T00:43:55;7.50;;;6.50;;
3095;SDS011;1558;42.700;23.360;2023-04-24T00:46:23;7.83;;;6.27;;
3095;SDS011;1558;42.700;23.360;2023-04-24T00:48:51;6.53;;;5.93;;
3095;SDS011;1558;42.700;23.360;2023-04-24T00:51:20;7.00;;;6.13;;
3095;SDS011;1558;42.700;23.360;2023-04-24T00:53:49;7.33;;;5.70;;
3095;SDS011;1558;42.700;23.360;2023-04-24T00:56:18;7.57;;;6.53;;
3095;SDS011;1558;42.700;23.360;2023-04-24T00:58:46;6.40;;;5.80;;
3095;SDS011;1558;42.700;23.360;2023-04-24T01:01:15;6.90;;;6.20;;
3095;SDS011;1558;42.700;23.360;2023-04-24T01:03:43;6.87;;;6.10;;
3095;SDS011;1558;42.700;23.360;2023-04-24T01:06:12;8.70;;;6.30;;
3095;SDS011;1558;42.700;23.360;2023-04-24T01:08:41;7.43;;;6.17;;
3095;SDS011;1558;42.700;23.360;2023-04-24T01:11:11;6.30;;;5.70;;
3095;SDS011;1558;42.700;23.360;2023-04-24T01:13:39;6.30;;;5.73;;
3095;SDS011;1558;42.700;23.360;2023-04-24T01:16:07;6.83;;;6.10;;
3095;SDS011;1558;42.700;23.360;2023-04-24T01:18:35;6.87;;;6.17;;
3095;SDS011;1558;42.700;23.360;2023-04-24T01:21:04;7.10;;;6.40;;
3095;SDS011;1558;42.700;23.360;2023-04-24T01:23:36;7.73;;;6.50;;
3095;SDS011;1558;42.700;23.360;2023-04-24T01:26:05;6.57;;;5.97;;
3095;SDS011;1558;42.700;23.360;2023-04-24T01:28:33;8.20;;;6.53;;
3095;SDS011;1558;42.700;23.360;2023-04-24T01:31:02;7.13;;;6.47;;
3095;SDS011;1558;42.700;23.360;2023-04-24T01:33:30;6.93;;;6.30;;
3095;SDS011;1558;42.700;23.360;2023-04-24T01:35:59;10.70;;;7.03;;
3095;SDS011;1558;42.700;23.360;2023-04-24T01:38:28;9.00;;;7.43;;
3095;SDS011;1558;42.700;23.360;2023-04-24T01:40:58;9.60;;;8.33;;
3095;SDS011;1558;42.700;23.360;2023-04-24T01:43:26;9.43;;;7.60;;
3095;SDS011;1558;42.700;23.360;2023-04-24T01:45:54;9.07;;;7.60;;
3095;SDS011;1558;42.700;23.360;2023-04-24T01:48:22;13.00;;;8.00;;
3095;SDS011;1558;42.700;23.360;2023-04-24T01:50:50;10.87;;;8.10;;
3095;SDS011;1558;42.700;23.360;2023-04-24T01:53:18;12.27;;;8.10;;
3095;SDS011;1558;42.700;23.360;2023-04-24T01:55:47;9.40;;;8.23;;
3095;SDS011;1558;42.700;23.360;2023-04-24T01:58:16;8.47;;;7.67;;
3095;SDS011;1558;42.700;23.360;2023-04-24T02:00:44;8.00;;;7.20;;
3095;SDS011;1558;42.700;23.360;2023-04-24T02:03:13;8.77;;;7.87;;
3095;SDS011;1558;42.700;23.360;2023-04-24T02:05:43;8.53;;;7.40;;
3095;SDS011;1558;42.700;23.360;2023-04-24T02:08:11;8.57;;;7.40;;
3095;SDS011;1558;42.700;23.360;2023-04-24T02:10:39;10.67;;;7.70;;
3095;SDS011;1558;42.700;23.360;2023-04-24T02:13:07;7.80;;;6.97;;
3095;SDS011;1558;42.700;23.360;2023-04-24T02:15:37;7.70;;;7.00;;
3095;SDS011;1558;42.700;23.360;2023-04-24T02:18:05;9.93;;;6.97;;
3095;SDS011;1558;42.700;23.360;2023-04-24T02:20:33;7.70;;;6.67;;
3095;SDS011;1558;42.700;23.360;2023-04-24T02:23:01;8.27;;;7.10;;
3095;SDS011;1558;42.700;23.360;2023-04-24T02:25:30;7.63;;;6.80;;
3095;SDS011;1558;42.700;23.360;2023-04-24T02:27:58;7.93;;;7.13;;
3095;SDS011;1558;42.700;23.360;2023-04-24T02:30:26;8.97;;;8.17;;
3095;SDS011;1558;42.700;23.360;2023-04-24T02:32:55;7.90;;;7.20;;
3095;SDS011;1558;42.700;23.360;2023-04-24T02:35:23;8.47;;;7.67;;
3095;SDS011;1558;42.700;23.360;2023-04-24T02:37:52;11.00;;;8.50;;
3095;SDS011;1558;42.700;23.360;2023-04-24T02:40:20;8.23;;;7.23;;
3095;SDS011;1558;42.700;23.360;2023-04-24T02:42:48;8.20;;;7.17;;
3095;SDS011;1558;42.700;23.360;2023-04-24T02:45:17;8.13;;;7.43;;
3095;SDS011;1558;42.700;23.360;2023-04-24T02:47:45;7.80;;;6.83;;
3095;SDS011;1558;42.700;23.360;2023-04-24T02:50:15;9.50;;;7.77;;
3095;SDS011;1558;42.700;23.360;2023-04-24T02:52:43;8.67;;;7.80;;
3095;SDS011;1558;42.700;23.360;2023-04-24T02:55:11;8.80;;;7.93;;
3095;SDS011;1558;42.700;23.360;2023-04-24T02:57:39;10.13;;;7.83;;
3095;SDS011;1558;42.700;23.360;2023-04-24T03:00:08;9.73;;;8.37;;
3095;SDS011;1558;42.700;23.360;2023-04-24T03:02:37;11.20;;;8.93;;
3095;SDS011;1558;42.700;23.360;2023-04-24T03:05:06;14.73;;;9.00;;
3095;SDS011;1558;42.700;23.360;2023-04-24T03:07:36;9.97;;;9.07;;
3095;SDS011;1558;42.700;23.360;2023-04-24T03:10:05;10.37;;;8.47;;
3095;SDS011;1558;42.700;23.360;2023-04-24T03:12:36;11.03;;;9.20;;
3095;SDS011;1558;42.700;23.360;2023-04-24T03:15:04;9.77;;;8.73;;
3095;SDS011;1558;42.700;23.360;2023-04-24T03:17:33;9.93;;;9.03;;
3095;SDS011;1558;42.700;23.360;2023-04-24T03:20:03;8.57;;;7.77;;
3095;SDS011;1558;42.700;23.360;2023-04-24T03:22:33;10.33;;;8.80;;
3095;SDS011;1558;42.700;23.360;2023-04-24T03:25:03;9.97;;;8.50;;
3095;SDS011;1558;42.700;23.360;2023-04-24T03:27:32;9.07;;;8.13;;
3095;SDS011;1558;42.700;23.360;2023-04-24T03:30:00;8.37;;;7.53;;
3095;SDS011;1558;42.700;23.360;2023-04-24T03:32:29;7.90;;;7.10;;
3095;SDS011;1558;42.700;23.360;2023-04-24T03:34:58;8.33;;;7.40;;
3095;SDS011;1558;42.700;23.360;2023-04-24T03:37:26;10.77;;;9.30;;
3095;SDS011;1558;42.700;23.360;2023-04-24T03:39:55;8.63;;;7.73;;
3095;SDS011;1558;42.700;23.360;2023-04-24T03:42:24;8.77;;;6.90;;
3095;SDS011;1558;42.700;23.360;2023-04-24T03:44:53;7.30;;;6.60;;
3095;SDS011;1558;42.700;23.360;2023-04-24T03:47:21;8.07;;;7.17;;
3095;SDS011;1558;42.700;23.360;2023-04-24T03:49:49;8.70;;;7.30;;
3095;SDS011;1558;42.700;23.360;2023-04-24T03:52:18;7.97;;;6.67;;
3095;SDS011;1558;42.700;23.360;2023-04-24T03:54:46;8.77;;;6.77;;
3095;SDS011;1558;42.700;23.360;2023-04-24T03:57:14;11.07;;;7.60;;
3095;SDS011;1558;42.700;23.360;2023-04-24T03:59:44;9.20;;;7.33;;
3095;SDS011;1558;42.700;23.360;2023-04-24T04:02:12;9.40;;;7.27;;
3095;SDS011;1558;42.700;23.360;2023-04-24T04:04:40;7.70;;;7.00;;
3095;SDS011;1558;42.700;23.360;2023-04-24T04:07:09;8.63;;;7.30;;
3095;SDS011;1558;42.700;23.360;2023-04-24T04:09:37;7.90;;;7.20;;
3095;SDS011;1558;42.700;23.360;2023-04-24T04:12:06;8.13;;;7.30;;
3095;SDS011;1558;42.700;23.360;2023-04-24T04:14:34;9.53;;;7.27;;
3095;SDS011;1558;42.700;23.360;2023-04-24T04:17:03;7.70;;;6.90;;
3095;SDS011;1558;42.700;23.360;2023-04-24T04:19:31;11.83;;;6.87;;
3095;SDS011;1558;42.700;23.360;2023-04-24T04:22:00;10.83;;;7.83;;
3095;SDS011;1558;42.700;23.360;2023-04-24T04:24:28;8.20;;;7.40;;
3095;SDS011;1558;42.700;23.360;2023-04-24T04:26:56;10.17;;;7.70;;
3095;SDS011;1558;42.700;23.360;2023-04-24T04:29:24;11.53;;;10.33;;
3095;SDS011;1558;42.700;23.360;2023-04-24T04:31:52;16.80;;;13.33;;
3095;SDS011;1558;42.700;23.360;2023-04-24T04:34:23;17.70;;;16.10;;
3095;SDS011;1558;42.700;23.360;2023-04-24T04:36:51;19.03;;;17.03;;
3095;SDS011;1558;42.700;23.360;2023-04-24T04:39:19;13.17;;;10.50;;
3095;SDS011;1558;42.700;23.360;2023-04-24T04:41:47;13.13;;;11.53;;
3095;SDS011;1558;42.700;23.360;2023-04-24T04:44:16;22.57;;;13.47;;
3095;SDS011;1558;42.700;23.360;2023-04-24T04:46:44;15.13;;;12.97;;
3095;SDS011;1558;42.700;23.360;2023-04-24T04:49:13;12.47;;;11.07;;
3095;SDS011;1558;42.700;23.360;2023-04-24T04:51:44;13.07;;;11.67;;
3095;SDS011;1558;42.700;23.360;2023-04-24T04:54:13;16.63;;;12.73;;
3095;SDS011;1558;42.700;23.360;2023-04-24T04:56:42;16.73;;;13.30;;
3095;SDS011;1558;42.700;23.360;2023-04-24T04:59:11;19.43;;;14.00;;
3095;SDS011;1558;42.700;23.360;2023-04-24T05:01:39;23.17;;;14.67;;
3095;SDS011;1558;42.700;23.360;2023-04-24T05:04:07;18.10;;;12.97;;
3095;SDS011;1558;42.700;23.360;2023-04-24T05:06:36;17.83;;;13.90;;
3095;SDS011;1558;42.700;23.360;2023-04-24T05:09:06;23.60;;;14.03;;
3095;SDS011;1558;42.700;23.360;2023-04-24T05:11:34;18.97;;;13.33;;
3095;SDS011;1558;42.700;23.360;2023-04-24T05:14:02;20.30;;;13.80;;
3095;SDS011;1558;42.700;23.360;2023-04-24T05:16:30;14.13;;;11.50;;
3095;SDS011;1558;42.700;23.360;2023-04-24T05:18:58;14.23;;;11.90;;
3095;SDS011;1558;42.700;23.360;2023-04-24T05:21:26;13.40;;;10.67;;
3095;SDS011;1558;42.700;23.360;2023-04-24T05:23:55;14.63;;;11.07;;
3095;SDS011;1558;42.700;23.360;2023-04-24T05:26:25;11.33;;;9.10;;
3095;SDS011;1558;42.700;23.360;2023-04-24T05:28:53;11.03;;;9.93;;
3095;SDS011;1558;42.700;23.360;2023-04-24T05:31:21;11.00;;;9.90;;
3095;SDS011;1558;42.700;23.360;2023-04-24T05:33:50;11.27;;;10.17;;
3095;SDS011;1558;42.700;23.360;2023-04-24T05:36:18;10.20;;;9.07;;
3095;SDS011;1558;42.700;23.360;2023-04-24T05:38:47;11.73;;;9.63;;
3095;SDS011;1558;42.700;23.360;2023-04-24T05:41:16;13.43;;;10.13;;
3095;SDS011;1558;42.700;23.360;2023-04-24T05:43:45;13.57;;;9.90;;
3095;SDS011;1558;42.700;23.360;2023-04-24T05:46:13;13.13;;;9.43;;
3095;SDS011;1558;42.700;23.360;2023-04-24T05:48:42;14.97;;;9.50;;
3095;SDS011;1558;42.700;23.360;2023-04-24T05:51:10;16.43;;;9.50;;
3095;SDS011;1558;42.700;23.360;2023-04-24T05:53:38;10.80;;;8.50;;
3095;SDS011;1558;42.700;23.360;2023-04-24T05:56:06;11.70;;;8.40;;
3095;SDS011;1558;42.700;23.360;2023-04-24T05:58:34;12.43;;;8.30;;
3095;SDS011;1558;42.700;23.360;2023-04-24T06:01:05;12.07;;;9.53;;
3095;SDS011;1558;42.700;23.360;2023-04-24T06:03:33;9.90;;;8.20;;
3095;SDS011;1558;42.700;23.360;2023-04-24T06:06:01;15.13;;;8.57;;
3095;SDS011;1558;42.700;23.360;2023-04-24T06:08:29;12.40;;;8.87;;
3095;SDS011;1558;42.700;23.360;2023-04-24T06:10:58;13.40;;;9.57;;
3095;SDS011;1558;42.700;23.360;2023-04-24T06:13:29;10.73;;;9.23;;
3095;SDS011;1558;42.700;23.360;2023-04-24T06:15:57;19.67;;;10.40;;
3095;SDS011;1558;42.700;23.360;2023-04-24T06:18:27;12.57;;;9.63;;
3095;SDS011;1558;42.700;23.360;2023-04-24T06:20:55;10.33;;;9.13;;
3095;SDS011;1558;42.700;23.360;2023-04-24T06:23:24;11.10;;;9.30;;
3095;SDS011;1558;42.700;23.360;2023-04-24T06:25:52;11.15;;;10.02;;
3095;SDS011;1558;42.700;23.360;2023-04-24T06:28:20;14.48;;;12.43;;
3095;SDS011;1558;42.700;23.360;2023-04-24T06:30:48;11.30;;;9.85;;
3095;SDS011;1558;42.700;23.360;2023-04-24T06:33:16;10.65;;;9.55;;
3095;SDS011;1558;42.700;23.360;2023-04-24T06:35:49;11.43;;;10.23;;
3095;SDS011;1558;42.700;23.360;2023-04-24T06:38:17;12.70;;;10.32;;
3095;SDS011;1558;42.700;23.360;2023-04-24T06:40:46;11.40;;;9.93;;
3095;SDS011;1558;42.700;23.360;2023-04-24T06:43:14;29.70;;;11.48;;
3095;SDS011;1558;42.700;23.360;2023-04-24T06:45:42;17.08;;;9.98;;
3095;SDS011;1558;42.700;23.360;2023-04-24T06:48:11;12.18;;;10.13;;
3095;SDS011;1558;42.700;23.360;2023-04-24T06:50:39;13.68;;;10.50;;
3095;SDS011;1558;42.700;23.360;2023-04-24T06:53:09;16.60;;;11.07;;
3095;SDS011;1558;42.700;23.360;2023-04-24T06:55:39;11.00;;;9.98;;
3095;SDS011;1558;42.700;23.360;2023-04-24T06:58:07;11.15;;;9.88;;
3095;SDS011;1558;42.700;23.360;2023-04-24T07:00:35;13.27;;;10.00;;
3095;SDS011;1558;42.700;23.360;2023-04-24T07:03:03;12.15;;;10.65;;
3095;SDS011;1558;42.700;23.360;2023-04-24T07:05:32;11.55;;;10.25;;
3095;SDS011;1558;42.700;23.360;2023-04-24T07:08:01;14.38;;;11.40;;
3095;SDS011;1558;42.700;23.360;2023-04-24T07:10:32;11.35;;;10.07;;
3095;SDS011;1558;42.700;23.360;2023-04-24T07:13:02;12.98;;;11.05;;
3095;SDS011;1558;42.700;23.360;2023-04-24T07:15:30;18.25;;;10.77;;
3095;SDS011;1558;42.700;23.360;2023-04-24T07:17:58;11.95;;;10.70;;
3095;SDS011;1558;42.700;23.360;2023-04-24T07:20:30;13.68;;;10.50;;
3095;SDS011;1558;42.700;23.360;2023-04-24T07:23:00;11.10;;;10.10;;
3095;SDS011;1558;42.700;23.360;2023-04-24T07:25:28;13.55;;;10.27;;
3095;SDS011;1558;42.700;23.360;2023-04-24T07:27:58;13.60;;;10.88;;
3095;SDS011;1558;42.700;23.360;2023-04-24T07:30:26;13.75;;;10.88;;
3095;SDS011;1558;42.700;23.360;2023-04-24T07:32:55;14.80;;;10.27;;
3095;SDS011;1558;42.700;23.360;2023-04-24T07:35:23;12.10;;;10.68;;
3095;SDS011;1558;42.700;23.360;2023-04-24T07:37:52;11.30;;;10.13;;
3095;SDS011;1558;42.700;23.360;2023-04-24T07:40:21;11.27;;;10.23;;
3095;SDS011;1558;42.700;23.360;2023-04-24T07:42:50;11.68;;;10.05;;
3095;SDS011;1558;42.700;23.360;2023-04-24T07:45:19;10.50;;;9.50;;
3095;SDS011;1558;42.700;23.360;2023-04-24T07:47:50;14.35;;;10.45;;
3095;SDS011;1558;42.700;23.360;2023-04-24T07:50:18;13.32;;;10.85;;
3095;SDS011;1558;42.700;23.360;2023-04-24T07:52:46;11.75;;;10.68;;
3095;SDS011;1558;42.700;23.360;2023-04-24T07:55:15;10.43;;;9.43;;
3095;SDS011;1558;42.700;23.360;2023-04-24T07:57:43;10.98;;;10.02;;
3095;SDS011;1558;42.700;23.360;2023-04-24T08:00:11;11.93;;;9.43;;
3095;SDS011;1558;42.700;23.360;2023-04-24T08:02:41;14.13;;;9.77;;
3095;SDS011;1558;42.700;23.360;2023-04-24T08:05:11;9.75;;;8.77;;
3095;SDS011;1558;42.700;23.360;2023-04-24T08:07:39;8.98;;;8.18;;
3095;SDS011;1558;42.700;23.360;2023-04-24T08:10:09;10.48;;;9.10;;
3095;SDS011;1558;42.700;23.360;2023-04-24T08:12:38;8.80;;;7.68;;
3095;SDS011;1558;42.700;23.360;2023-04-24T08:15:07;8.02;;;7.20;;
3095;SDS011;1558;42.700;23.360;2023-04-24T08:17:35;9.18;;;7.95;;
3095;SDS011;1558;42.700;23.360;2023-04-24T08:20:06;8.55;;;7.85;;
3095;SDS011;1558;42.700;23.360;2023-04-24T08:22:40;7.75;;;7.15;;
3095;SDS011;1558;42.700;23.360;2023-04-24T08:25:08;7.75;;;7.03;;
3095;SDS011;1558;42.700;23.360;2023-04-24T08:27:37;8.20;;;7.60;;
3095;SDS011;1558;42.700;23.360;2023-04-24T08:30:06;8.30;;;7.50;;
3095;SDS011;1558;42.700;23.360;2023-04-24T08:32:35;9.30;;;8.43;;
3095;SDS011;1558;42.700;23.360;2023-04-24T08:35:06;8.98;;;8.07;;
3095;SDS011;1558;42.700;23.360;2023-04-24T08:37:36;10.00;;;8.13;;
3095;SDS011;1558;42.700;23.360;2023-04-24T08:40:05;8.60;;;7.80;;
3095;SDS011;1558;42.700;23.360;2023-04-24T08:42:39;8.65;;;7.20;;
3095;SDS011;1558;42.700;23.360;2023-04-24T08:45:14;8.48;;;7.60;;
3095;SDS011;1558;42.700;23.360;2023-04-24T08:47:42;8.07;;;6.78;;
3095;SDS011;1558;42.700;23.360;2023-04-24T08:50:13;6.72;;;6.03;;
3095;SDS011;1558;42.700;23.360;2023-04-24T08:52:41;7.18;;;6.47;;
3095;SDS011;1558;42.700;23.360;2023-04-24T08:55:10;7.97;;;6.30;;
3095;SDS011;1558;42.700;23.360;2023-04-24T08:57:38;6.80;;;6.20;;
3095;SDS011;1558;42.700;23.360;2023-04-24T09:00:07;7.95;;;7.15;;
3095;SDS011;1558;42.700;23.360;2023-04-24T09:02:39;8.00;;;7.30;;
3095;SDS011;1558;42.700;23.360;2023-04-24T09:05:09;8.60;;;6.32;;
3095;SDS011;1558;42.700;23.360;2023-04-24T09:07:39;7.32;;;6.40;;
3095;SDS011;1558;42.700;23.360;2023-04-24T09:10:12;7.75;;;6.80;;
3095;SDS011;1558;42.700;23.360;2023-04-24T09:12:40;9.07;;;6.45;;
3095;SDS011;1558;42.700;23.360;2023-04-24T09:15:09;11.13;;;6.90;;
3095;SDS011;1558;42.700;23.360;2023-04-24T09:17:38;6.85;;;6.25;;
3095;SDS011;1558;42.700;23.360;2023-04-24T09:20:07;7.93;;;6.45;;
3095;SDS011;1558;42.700;23.360;2023-04-24T09:22:37;8.85;;;6.72;;
3095;SDS011;1558;42.700;23.360;2023-04-24T09:25:07;9.93;;;6.47;;
3095;SDS011;1558;42.700;23.360;2023-04-24T09:27:41;7.30;;;6.60;;
3095;SDS011;1558;42.700;23.360;2023-04-24T09:30:10;7.45;;;6.43;;
3095;SDS011;1558;42.700;23.360;2023-04-24T09:32:39;7.90;;;6.63;;
3095;SDS011;1558;42.700;23.360;2023-04-24T09:35:09;8.50;;;7.13;;
3095;SDS011;1558;42.700;23.360;2023-04-24T09:37:40;7.55;;;6.72;;
3095;SDS011;1558;42.700;23.360;2023-04-24T09:40:10;6.88;;;5.95;;
3095;SDS011;1558;42.700;23.360;2023-04-24T09:42:43;6.97;;;6.38;;
3095;SDS011;1558;42.700;23.360;2023-04-24T09:45:15;7.15;;;6.38;;
3095;SDS011;1558;42.700;23.360;2023-04-24T09:47:43;7.03;;;6.43;;
3095;SDS011;1558;42.700;23.360;2023-04-24T09:50:13;8.32;;;6.45;;
3095;SDS011;1558;42.700;23.360;2023-04-24T09:52:47;8.95;;;7.00;;
3095;SDS011;1558;42.700;23.360;2023-04-24T09:55:24;6.70;;;6.03;;
3095;SDS011;1558;42.700;23.360;2023-04-24T09:57:54;9.45;;;5.95;;
3095;SDS011;1558;42.700;23.360;2023-04-24T10:00:24;7.60;;;6.05;;
3095;SDS011;1558;42.700;23.360;2023-04-24T10:02:57;6.10;;;5.57;;
3095;SDS011;1558;42.700;23.360;2023-04-24T10:05:27;10.82;;;5.72;;
3095;SDS011;1558;42.700;23.360;2023-04-24T10:07:59;6.70;;;6.10;;
3095;SDS011;1558;42.700;23.360;2023-04-24T10:10:29;6.75;;;6.15;;
3095;SDS011;1558;42.700;23.360;2023-04-24T10:12:58;7.55;;;5.72;;
3095;SDS011;1558;42.700;23.360;2023-04-24T10:15:27;9.10;;;6.63;;
3095;SDS011;1558;42.700;23.360;2023-04-24T10:17:55;6.93;;;6.32;;
3095;SDS011;1558;42.700;23.360;2023-04-24T10:20:26;6.53;;;5.95;;
3095;SDS011;1558;42.700;23.360;2023-04-24T10:22:57;6.70;;;6.05;;
3095;SDS011;1558;42.700;23.360;2023-04-24T10:25:29;7.70;;;5.97;;
3095;SDS011;1558;42.700;23.360;2023-04-24T10:27:58;6.65;;;6.03;;
3095;SDS011;1558;42.700;23.360;2023-04-24T10:30:28;8.77;;;7.63;;
3095;SDS011;1558;42.700;23.360;2023-04-24T10:32:57;8.35;;;5.93;;
3095;SDS011;1558;42.700;23.360;2023-04-24T10:35:27;7.00;;;6.38;;
3095;SDS011;1558;42.700;23.360;2023-04-24T10:37:59;7.82;;;5.82;;
3095;SDS011;1558;42.700;23.360;2023-04-24T10:40:34;7.10;;;6.30;;
3095;SDS011;1558;42.700;23.360;2023-04-24T10:43:04;7.53;;;6.35;;
3095;SDS011;1558;42.700;23.360;2023-04-24T10:45:34;6.38;;;5.88;;
3095;SDS011;1558;42.700;23.360;2023-04-24T10:48:03;7.90;;;6.45;;
3095;SDS011;1558;42.700;23.360;2023-04-24T10:50:43;6.97;;;6.38;;
3095;SDS011;1558;42.700;23.360;2023-04-24T10:53:14;7.00;;;6.30;;
3095;SDS011;1558;42.700;23.360;2023-04-24T10:55:46;6.90;;;6.20;;
3095;SDS011;1558;42.700;23.360;2023-04-24T10:58:15;6.45;;;5.90;;
3095;SDS011;1558;42.700;23.360;2023-04-24T11:00:47;6.53;;;5.93;;
3095;SDS011;1558;42.700;23.360;2023-04-24T11:03:25;10.13;;;7.35;;
3095;SDS011;1558;42.700;23.360;2023-04-24T11:05:56;9.48;;;7.22;;
3095;SDS011;1558;42.700;23.360;2023-04-24T11:08:27;7.55;;;6.18;;
3095;SDS011;1558;42.700;23.360;2023-04-24T11:10:59;15.95;;;10.48;;
3095;SDS011;1558;42.700;23.360;2023-04-24T11:16:35;11.10;;;6.97;;
3095;SDS011;1558;42.700;23.360;2023-04-24T11:19:07;11.98;;;8.05;;
3095;SDS011;1558;42.700;23.360;2023-04-24T11:21:39;9.13;;;6.93;;
3095;SDS011;1558;42.700;23.360;2023-04-24T11:24:22;7.97;;;6.80;;
3095;SDS011;1558;42.700;23.360;2023-04-24T11:26:53;12.63;;;8.02;;
3095;SDS011;1558;42.700;23.360;2023-04-24T11:29:23;10.82;;;7.18;;
3095;SDS011;1558;42.700;23.360;2023-04-24T11:34:54;7.72;;;6.95;;
3095;SDS011;1558;42.700;23.360;2023-04-24T11:37:23;7.78;;;6.80;;
3095;SDS011;1558;42.700;23.360;2023-04-24T11:39:53;6.88;;;6.00;;
3095;SDS011;1558;42.700;23.360;2023-04-24T11:42:25;5.95;;;5.35;;
3095;SDS011;1558;42.700;23.360;2023-04-24T11:44:53;6.68;;;6.07;;
3095;SDS011;1558;42.700;23.360;2023-04-24T11:47:29;7.50;;;6.78;;
3095;SDS011;1558;42.700;23.360;2023-04-24T11:50:00;7.40;;;6.80;;
3095;SDS011;1558;42.700;23.360;2023-04-24T11:52:29;6.43;;;5.90;;
3095;SDS011;1558;42.700;23.360;2023-04-24T11:54:57;5.82;;;5.25;;
3095;SDS011;1558;42.700;23.360;2023-04-24T11:57:28;7.18;;;5.95;;
3095;SDS011;1558;42.700;23.360;2023-04-24T12:00:00;6.25;;;5.65;;
3095;SDS011;1558;42.700;23.360;2023-04-24T12:02:31;5.22;;;4.78;;
3095;SDS011;1558;42.700;23.360;2023-04-24T12:04:59;5.07;;;4.68;;
3095;SDS011;1558;42.700;23.360;2023-04-24T12:07:27;5.75;;;5.35;;
3095;SDS011;1558;42.700;23.360;2023-04-24T12:09:56;8.35;;;5.85;;
3095;SDS011;1558;42.700;23.360;2023-04-24T12:12:26;6.10;;;5.65;;
3095;SDS011;1558;42.700;23.360;2023-04-24T12:14:57;7.65;;;5.18;;
3095;SDS011;1558;42.700;23.360;2023-04-24T12:17:27;7.30;;;4.88;;
3095;SDS011;1558;42.700;23.360;2023-04-24T12:19:57;6.13;;;5.20;;
3095;SDS011;1558;42.700;23.360;2023-04-24T12:22:27;9.32;;;5.30;;
3095;SDS011;1558;42.700;23.360;2023-04-24T12:24:56;6.05;;;5.45;;
3095;SDS011;1558;42.700;23.360;2023-04-24T12:27:31;5.45;;;4.95;;
3095;SDS011;1558;42.700;23.360;2023-04-24T12:30:00;7.40;;;6.30;;
3095;SDS011;1558;42.700;23.360;2023-04-24T12:32:30;5.70;;;5.18;;
3095;SDS011;1558;42.700;23.360;2023-04-24T12:34:59;6.25;;;5.32;;
3095;SDS011;1558;42.700;23.360;2023-04-24T12:37:33;5.72;;;5.10;;
3095;SDS011;1558;42.700;23.360;2023-04-24T12:40:03;6.05;;;5.28;;
3095;SDS011;1558;42.700;23.360;2023-04-24T12:42:36;6.80;;;4.95;;
3095;SDS011;1558;42.700;23.360;2023-04-24T12:45:10;6.55;;;4.32;;
3095;SDS011;1558;42.700;23.360;2023-04-24T12:47:39;5.32;;;4.63;;
3095;SDS011;1558;42.700;23.360;2023-04-24T12:50:08;7.07;;;4.43;;
3095;SDS011;1558;42.700;23.360;2023-04-24T12:52:37;6.20;;;4.70;;
3095;SDS011;1558;42.700;23.360;2023-04-24T12:55:06;5.90;;;4.82;;
3095;SDS011;1558;42.700;23.360;2023-04-24T12:57:37;7.05;;;4.28;;
3095;SDS011;1558;42.700;23.360;2023-04-24T13:00:07;4.60;;;4.20;;
3095;SDS011;1558;42.700;23.360;2023-04-24T13:02:36;4.95;;;4.55;;
3095;SDS011;1558;42.700;23.360;2023-04-24T13:05:05;5.45;;;4.60;;
3095;SDS011;1558;42.700;23.360;2023-04-24T13:07:33;9.50;;;5.32;;
3095;SDS011;1558;42.700;23.360;2023-04-24T13:10:01;6.13;;;5.28;;
3095;SDS011;1558;42.700;23.360;2023-04-24T13:12:29;5.10;;;4.68;;
3095;SDS011;1558;42.700;23.360;2023-04-24T13:14:59;5.75;;;5.20;;
3095;SDS011;1558;42.700;23.360;2023-04-24T13:17:27;6.15;;;5.55;;
3095;SDS011;1558;42.700;23.360;2023-04-24T13:19:55;6.32;;;5.32;;
3095;SDS011;1558;42.700;23.360;2023-04-24T13:22:23;5.60;;;5.03;;
3095;SDS011;1558;42.700;23.360;2023-04-24T13:24:51;5.38;;;4.88;;
3095;SDS011;1558;42.700;23.360;2023-04-24T13:27:19;6.45;;;4.82;;
3095;SDS011;1558;42.700;23.360;2023-04-24T13:29:47;6.93;;;4.82;;
3095;SDS011;1558;42.700;23.360;2023-04-24T13:32:16;7.43;;;5.35;;
3095;SDS011;1558;42.700;23.360;2023-04-24T13:34:46;5.40;;;4.90;;
3095;SDS011;1558;42.700;23.360;2023-04-24T13:37:14;7.85;;;6.80;;
3095;SDS011;1558;42.700;23.360;2023-04-24T13:39:42;6.65;;;5.75;;
3095;SDS011;1558;42.700;23.360;2023-04-24T13:42:10;5.65;;;5.07;;
3095;SDS011;1558;42.700;23.360;2023-04-24T13:44:39;7.93;;;5.43;;
3095;SDS011;1558;42.700;23.360;2023-04-24T13:47:07;5.70;;;5.25;;
3095;SDS011;1558;42.700;23.360;2023-04-24T13:49:37;8.23;;;5.85;;
3095;SDS011;1558;42.700;23.360;2023-04-24T13:52:05;6.40;;;5.43;;
3095;SDS011;1558;42.700;23.360;2023-04-24T13:54:33;6.05;;;5.45;;
3095;SDS011;1558;42.700;23.360;2023-04-24T13:57:02;6.10;;;5.18;;
3095;SDS011;1558;42.700;23.360;2023-04-24T13:59:30;6.32;;;5.80;;
3095;SDS011;1558;42.700;23.360;2023-04-24T14:01:58;5.88;;;5.38;;
3095;SDS011;1558;42.700;23.360;2023-04-24T14:04:27;9.82;;;6.07;;
3095;SDS011;1558;42.700;23.360;2023-04-24T14:06:56;6.60;;;5.38;;
3095;SDS011;1558;42.700;23.360;2023-04-24T14:09:25;5.28;;;4.78;;
3095;SDS011;1558;42.700;23.360;2023-04-24T14:11:53;5.00;;;4.60;;
3095;SDS011;1558;42.700;23.360;2023-04-24T14:14:21;5.00;;;4.47;;
3095;SDS011;1558;42.700;23.360;2023-04-24T14:16:51;5.22;;;4.72;;
3095;SDS011;1558;42.700;23.360;2023-04-24T14:19:19;5.88;;;5.28;;
3095;SDS011;1558;42.700;23.360;2023-04-24T14:21:47;5.35;;;4.90;;
3095;SDS011;1558;42.700;23.360;2023-04-24T14:24:17;5.82;;;5.22;;
3095;SDS011;1558;42.700;23.360;2023-04-24T14:26:45;5.65;;;5.15;;
3095;SDS011;1558;42.700;23.360;2023-04-24T14:29:13;5.70;;;5.20;;
3095;SDS011;1558;42.700;23.360;2023-04-24T14:31:41;6.23;;;5.10;;
3095;SDS011;1558;42.700;23.360;2023-04-24T14:34:10;6.80;;;5.70;;
3095;SDS011;1558;42.700;23.360;2023-04-24T14:36:38;7.03;;;5.60;;
3095;SDS011;1558;42.700;23.360;2023-04-24T14:39:06;6.40;;;5.80;;
3095;SDS011;1558;42.700;23.360;2023-04-24T14:41:35;8.07;;;6.10;;
3095;SDS011;1558;42.700;23.360;2023-04-24T14:44:07;6.77;;;6.07;;
3095;SDS011;1558;42.700;23.360;2023-04-24T14:46:36;7.83;;;6.50;;
3095;SDS011;1558;42.700;23.360;2023-04-24T14:49:04;7.73;;;6.27;;
3095;SDS011;1558;42.700;23.360;2023-04-24T14:51:35;7.13;;;6.40;;
3095;SDS011;1558;42.700;23.360;2023-04-24T14:54:04;8.33;;;6.00;;
3095;SDS011;1558;42.700;23.360;2023-04-24T14:56:32;5.50;;;5.07;;
3095;SDS011;1558;42.700;23.360;2023-04-24T14:59:01;6.10;;;5.60;;
3095;SDS011;1558;42.700;23.360;2023-04-24T15:01:30;5.77;;;5.27;;
3095;SDS011;1558;42.700;23.360;2023-04-24T15:03:58;6.80;;;5.33;;
3095;SDS011;1558;42.700;23.360;2023-04-24T15:06:26;6.20;;;5.60;;
3095;SDS011;1558;42.700;23.360;2023-04-24T15:08:57;7.63;;;6.00;;
3095;SDS011;1558;42.700;23.360;2023-04-24T15:11:25;8.07;;;6.50;;
3095;SDS011;1558;42.700;23.360;2023-04-24T15:13:53;9.10;;;6.20;;